Decoded Metar for CYYH (SPENCE BAY in NU, CANADA) (IATA:YYH) | Meteo·Mobile Aviation Weather
aviador You're here:

CYYH Decoded Metar

SPENCE BAY in NU, CANADA
Report Time2019-02-16 07:00:00
UTC Time2019-02-16 07:56:56
Flight Rules vfr VFR
WindVRB at 02 kt
Visibility9999 m
Phenomena:N/A
Clouds:Few 210 Hf
Expected CloudBase > 1,600 ft AGL from Temp-Dew spread
CeilingNone
Temp-31°C (ISA -46)
Dew Point-35°C (68% RH)
AAT-35.6°C
QNH1026 hPa
Density Alt-6,388 ft
Elevation92 ft
Report Wrong Elevation
Raw Report
CYYH 160700Z VRB02KT 15SM FEW210 M31/M35 A3030 RMK CI2 AURBO
SLP266=

Extra information for CYYH:More info

Metar Taf Metar & Taf Last 4 Metars F.Rules Stats Wind Profile Meteogram Temp Stats Airport Information Weather charts Add Link Nearby VenuesMetar ALERT Operation Metar Decoded Social comments